sensor_id;sensor_type;location;lat;lon;timestamp;P1;durP1;ratioP1;P2;durP2;ratioP2
434;SDS011;204;48.942;9.256;2023-07-20T00:01:23;4.20;;;2.00;;
434;SDS011;204;48.942;9.256;2023-07-20T00:03:48;3.40;;;2.53;;
434;SDS011;204;48.942;9.256;2023-07-20T00:06:19;3.40;;;2.33;;
434;SDS011;204;48.942;9.256;2023-07-20T00:08:49;2.90;;;2.63;;
434;SDS011;204;48.942;9.256;2023-07-20T00:11:15;2.07;;;1.80;;
434;SDS011;204;48.942;9.256;2023-07-20T00:13:41;2.70;;;2.17;;
434;SDS011;204;48.942;9.256;2023-07-20T00:16:06;3.10;;;2.10;;
434;SDS011;204;48.942;9.256;2023-07-20T00:18:32;3.60;;;2.30;;
434;SDS011;204;48.942;9.256;2023-07-20T00:20:58;2.83;;;2.57;;
434;SDS011;204;48.942;9.256;2023-07-20T00:23:25;3.13;;;2.27;;
434;SDS011;204;48.942;9.256;2023-07-20T00:25:51;4.13;;;2.13;;
434;SDS011;204;48.942;9.256;2023-07-20T00:28:16;3.20;;;2.30;;
434;SDS011;204;48.942;9.256;2023-07-20T00:30:42;5.60;;;2.73;;
434;SDS011;204;48.942;9.256;2023-07-20T00:33:10;2.33;;;2.13;;
434;SDS011;204;48.942;9.256;2023-07-20T00:35:37;3.97;;;2.07;;
434;SDS011;204;48.942;9.256;2023-07-20T00:38:03;4.20;;;2.03;;
434;SDS011;204;48.942;9.256;2023-07-20T00:40:34;2.67;;;2.10;;
434;SDS011;204;48.942;9.256;2023-07-20T00:43:01;2.27;;;1.70;;
434;SDS011;204;48.942;9.256;2023-07-20T00:45:27;2.10;;;1.70;;
434;SDS011;204;48.942;9.256;2023-07-20T00:47:53;2.40;;;2.20;;
434;SDS011;204;48.942;9.256;2023-07-20T00:50:18;4.40;;;2.00;;
434;SDS011;204;48.942;9.256;2023-07-20T00:52:44;4.13;;;1.70;;
434;SDS011;204;48.942;9.256;2023-07-20T00:55:10;2.90;;;1.77;;
434;SDS011;204;48.942;9.256;2023-07-20T00:57:36;3.07;;;2.20;;
434;SDS011;204;48.942;9.256;2023-07-20T01:00:02;3.03;;;2.27;;
434;SDS011;204;48.942;9.256;2023-07-20T01:02:27;4.03;;;2.33;;
434;SDS011;204;48.942;9.256;2023-07-20T01:04:53;2.67;;;2.20;;
434;SDS011;204;48.942;9.256;2023-07-20T01:07:25;2.07;;;1.70;;
434;SDS011;204;48.942;9.256;2023-07-20T01:13:03;2.27;;;2.07;;
434;SDS011;204;48.942;9.256;2023-07-20T01:15:31;4.50;;;2.63;;
434;SDS011;204;48.942;9.256;2023-07-20T01:17:58;3.77;;;2.83;;
434;SDS011;204;48.942;9.256;2023-07-20T01:20:26;2.13;;;2.03;;
434;SDS011;204;48.942;9.256;2023-07-20T01:31:30;3.83;;;2.20;;
434;SDS011;204;48.942;9.256;2023-07-20T01:33:59;4.70;;;2.50;;
434;SDS011;204;48.942;9.256;2023-07-20T01:36:28;2.10;;;2.00;;
434;SDS011;204;48.942;9.256;2023-07-20T01:38:56;4.30;;;1.63;;
434;SDS011;204;48.942;9.256;2023-07-20T01:41:22;2.50;;;2.30;;
434;SDS011;204;48.942;9.256;2023-07-20T01:43:48;2.50;;;1.90;;
434;SDS011;204;48.942;9.256;2023-07-20T01:46:13;2.87;;;2.43;;
434;SDS011;204;48.942;9.256;2023-07-20T01:48:39;3.13;;;2.03;;
434;SDS011;204;48.942;9.256;2023-07-20T01:51:04;5.63;;;2.07;;
434;SDS011;204;48.942;9.256;2023-07-20T01:53:30;6.57;;;2.37;;
434;SDS011;204;48.942;9.256;2023-07-20T01:55:56;2.90;;;2.30;;
434;SDS011;204;48.942;9.256;2023-07-20T01:58:22;3.30;;;2.03;;
434;SDS011;204;48.942;9.256;2023-07-20T02:00:47;6.57;;;2.33;;
434;SDS011;204;48.942;9.256;2023-07-20T02:03:13;5.63;;;2.70;;
434;SDS011;204;48.942;9.256;2023-07-20T02:05:39;2.20;;;2.00;;
434;SDS011;204;48.942;9.256;2023-07-20T02:08:04;5.63;;;2.60;;
434;SDS011;204;48.942;9.256;2023-07-20T02:10:30;4.40;;;2.37;;
434;SDS011;204;48.942;9.256;2023-07-20T02:12:56;2.70;;;2.50;;
434;SDS011;204;48.942;9.256;2023-07-20T02:15:21;3.00;;;2.30;;
434;SDS011;204;48.942;9.256;2023-07-20T02:17:47;3.27;;;2.73;;
434;SDS011;204;48.942;9.256;2023-07-20T02:20:13;3.83;;;2.47;;
434;SDS011;204;48.942;9.256;2023-07-20T02:22:39;2.33;;;2.13;;
434;SDS011;204;48.942;9.256;2023-07-20T02:25:05;10.47;;;2.07;;
434;SDS011;204;48.942;9.256;2023-07-20T02:27:32;2.13;;;1.80;;
434;SDS011;204;48.942;9.256;2023-07-20T02:29:58;3.33;;;2.27;;
434;SDS011;204;48.942;9.256;2023-07-20T02:32:24;3.97;;;2.27;;
434;SDS011;204;48.942;9.256;2023-07-20T02:34:49;3.47;;;2.57;;
434;SDS011;204;48.942;9.256;2023-07-20T02:37:16;2.20;;;2.00;;
434;SDS011;204;48.942;9.256;2023-07-20T02:39:42;3.70;;;2.20;;
434;SDS011;204;48.942;9.256;2023-07-20T02:42:07;5.20;;;1.90;;
434;SDS011;204;48.942;9.256;2023-07-20T02:44:33;2.33;;;2.17;;
434;SDS011;204;48.942;9.256;2023-07-20T02:46:58;2.80;;;1.93;;
434;SDS011;204;48.942;9.256;2023-07-20T02:49:24;2.80;;;2.27;;
434;SDS011;204;48.942;9.256;2023-07-20T02:51:49;2.40;;;2.20;;
434;SDS011;204;48.942;9.256;2023-07-20T02:54:15;2.83;;;1.87;;
434;SDS011;204;48.942;9.256;2023-07-20T02:56:41;3.40;;;2.03;;
434;SDS011;204;48.942;9.256;2023-07-20T02:59:06;2.30;;;2.13;;
434;SDS011;204;48.942;9.256;2023-07-20T03:01:32;3.50;;;1.97;;
434;SDS011;204;48.942;9.256;2023-07-20T03:03:58;4.30;;;2.00;;
434;SDS011;204;48.942;9.256;2023-07-20T03:06:24;4.90;;;2.60;;
434;SDS011;204;48.942;9.256;2023-07-20T03:08:49;6.17;;;2.40;;
434;SDS011;204;48.942;9.256;2023-07-20T03:11:17;2.97;;;2.00;;
434;SDS011;204;48.942;9.256;2023-07-20T03:13:44;2.60;;;2.33;;
434;SDS011;204;48.942;9.256;2023-07-20T03:16:10;3.17;;;2.10;;
434;SDS011;204;48.942;9.256;2023-07-20T03:18:41;3.30;;;2.50;;
434;SDS011;204;48.942;9.256;2023-07-20T03:21:09;2.30;;;2.07;;
434;SDS011;204;48.942;9.256;2023-07-20T03:23:36;5.13;;;2.70;;
434;SDS011;204;48.942;9.256;2023-07-20T03:26:02;3.03;;;2.43;;
434;SDS011;204;48.942;9.256;2023-07-20T03:28:28;2.20;;;2.07;;
434;SDS011;204;48.942;9.256;2023-07-20T03:30:54;3.60;;;2.63;;
434;SDS011;204;48.942;9.256;2023-07-20T03:33:25;6.03;;;2.93;;
434;SDS011;204;48.942;9.256;2023-07-20T03:35:52;3.23;;;2.40;;
434;SDS011;204;48.942;9.256;2023-07-20T03:38:19;2.42;;;2.22;;
434;SDS011;204;48.942;9.256;2023-07-20T03:40:55;3.73;;;2.70;;
434;SDS011;204;48.942;9.256;2023-07-20T03:43:22;2.93;;;2.30;;
434;SDS011;204;48.942;9.256;2023-07-20T03:45:49;3.07;;;2.73;;
434;SDS011;204;48.942;9.256;2023-07-20T03:48:16;3.23;;;2.70;;
434;SDS011;204;48.942;9.256;2023-07-20T03:50:46;4.73;;;2.27;;
434;SDS011;204;48.942;9.256;2023-07-20T03:53:13;3.63;;;2.47;;
434;SDS011;204;48.942;9.256;2023-07-20T03:55:40;3.40;;;2.80;;
434;SDS011;204;48.942;9.256;2023-07-20T03:58:16;3.23;;;2.57;;
434;SDS011;204;48.942;9.256;2023-07-20T04:00:48;4.93;;;2.87;;
434;SDS011;204;48.942;9.256;2023-07-20T04:03:15;5.00;;;2.50;;
434;SDS011;204;48.942;9.256;2023-07-20T04:05:41;5.43;;;2.97;;
434;SDS011;204;48.942;9.256;2023-07-20T04:08:08;4.87;;;2.20;;
434;SDS011;204;48.942;9.256;2023-07-20T04:10:34;5.10;;;2.03;;
434;SDS011;204;48.942;9.256;2023-07-20T04:13:00;6.13;;;2.60;;
434;SDS011;204;48.942;9.256;2023-07-20T04:15:26;4.37;;;2.70;;
434;SDS011;204;48.942;9.256;2023-07-20T04:17:51;3.50;;;2.33;;
434;SDS011;204;48.942;9.256;2023-07-20T04:20:17;7.80;;;3.33;;
434;SDS011;204;48.942;9.256;2023-07-20T04:22:43;3.27;;;2.30;;
434;SDS011;204;48.942;9.256;2023-07-20T04:25:08;7.23;;;2.50;;
434;SDS011;204;48.942;9.256;2023-07-20T04:27:35;4.63;;;2.90;;
434;SDS011;204;48.942;9.256;2023-07-20T04:30:00;5.23;;;3.60;;
434;SDS011;204;48.942;9.256;2023-07-20T04:32:27;5.50;;;2.53;;
434;SDS011;204;48.942;9.256;2023-07-20T04:34:52;2.60;;;2.43;;
434;SDS011;204;48.942;9.256;2023-07-20T04:37:18;3.00;;;2.60;;
434;SDS011;204;48.942;9.256;2023-07-20T04:39:44;3.00;;;2.80;;
434;SDS011;204;48.942;9.256;2023-07-20T04:42:09;4.30;;;2.73;;
434;SDS011;204;48.942;9.256;2023-07-20T04:44:35;3.93;;;2.80;;
434;SDS011;204;48.942;9.256;2023-07-20T04:47:00;4.07;;;2.73;;
434;SDS011;204;48.942;9.256;2023-07-20T04:49:26;3.17;;;2.30;;
434;SDS011;204;48.942;9.256;2023-07-20T04:51:51;3.40;;;2.70;;
434;SDS011;204;48.942;9.256;2023-07-20T04:54:17;3.30;;;2.30;;
434;SDS011;204;48.942;9.256;2023-07-20T04:56:44;4.23;;;2.70;;
434;SDS011;204;48.942;9.256;2023-07-20T04:59:09;3.73;;;2.63;;
434;SDS011;204;48.942;9.256;2023-07-20T05:01:35;4.20;;;1.93;;
434;SDS011;204;48.942;9.256;2023-07-20T05:04:01;5.20;;;2.57;;
434;SDS011;204;48.942;9.256;2023-07-20T05:06:26;7.20;;;2.20;;
434;SDS011;204;48.942;9.256;2023-07-20T05:08:52;5.73;;;2.50;;
434;SDS011;204;48.942;9.256;2023-07-20T05:11:17;8.90;;;2.47;;
434;SDS011;204;48.942;9.256;2023-07-20T05:13:43;4.80;;;2.10;;
434;SDS011;204;48.942;9.256;2023-07-20T05:16:08;3.20;;;2.50;;
434;SDS011;204;48.942;9.256;2023-07-20T05:18:34;4.80;;;2.60;;
434;SDS011;204;48.942;9.256;2023-07-20T05:21:00;4.47;;;2.70;;
434;SDS011;204;48.942;9.256;2023-07-20T05:23:25;3.33;;;2.23;;
434;SDS011;204;48.942;9.256;2023-07-20T05:25:57;2.90;;;1.70;;
434;SDS011;204;48.942;9.256;2023-07-20T05:28:24;2.93;;;2.00;;
434;SDS011;204;48.942;9.256;2023-07-20T05:30:51;2.80;;;2.10;;
434;SDS011;204;48.942;9.256;2023-07-20T05:33:17;5.90;;;2.23;;
434;SDS011;204;48.942;9.256;2023-07-20T05:35:44;2.60;;;2.10;;
434;SDS011;204;48.942;9.256;2023-07-20T05:38:09;3.87;;;2.07;;
434;SDS011;204;48.942;9.256;2023-07-20T05:40:39;2.50;;;1.83;;
434;SDS011;204;48.942;9.256;2023-07-20T05:43:06;2.97;;;2.07;;
434;SDS011;204;48.942;9.256;2023-07-20T05:45:31;4.27;;;2.17;;
434;SDS011;204;48.942;9.256;2023-07-20T05:47:57;2.13;;;1.97;;
434;SDS011;204;48.942;9.256;2023-07-20T05:50:22;2.40;;;1.80;;
434;SDS011;204;48.942;9.256;2023-07-20T05:52:48;3.60;;;2.07;;
434;SDS011;204;48.942;9.256;2023-07-20T05:55:14;5.13;;;1.63;;
434;SDS011;204;48.942;9.256;2023-07-20T05:57:39;3.13;;;2.00;;
434;SDS011;204;48.942;9.256;2023-07-20T06:00:08;3.80;;;2.30;;
434;SDS011;204;48.942;9.256;2023-07-20T06:02:34;3.83;;;1.93;;
434;SDS011;204;48.942;9.256;2023-07-20T06:04:59;4.57;;;2.17;;
434;SDS011;204;48.942;9.256;2023-07-20T06:07:25;3.20;;;1.93;;
434;SDS011;204;48.942;9.256;2023-07-20T06:09:50;3.63;;;1.83;;
434;SDS011;204;48.942;9.256;2023-07-20T06:12:16;2.27;;;1.60;;
434;SDS011;204;48.942;9.256;2023-07-20T06:14:42;3.03;;;1.53;;
434;SDS011;204;48.942;9.256;2023-07-20T06:17:07;3.20;;;2.10;;
434;SDS011;204;48.942;9.256;2023-07-20T06:19:33;2.83;;;1.47;;
434;SDS011;204;48.942;9.256;2023-07-20T06:22:02;4.50;;;2.10;;
434;SDS011;204;48.942;9.256;2023-07-20T06:24:28;3.77;;;1.80;;
434;SDS011;204;48.942;9.256;2023-07-20T06:26:53;3.60;;;2.10;;
434;SDS011;204;48.942;9.256;2023-07-20T06:29:19;2.27;;;1.87;;
434;SDS011;204;48.942;9.256;2023-07-20T06:31:44;5.83;;;2.40;;
434;SDS011;204;48.942;9.256;2023-07-20T06:34:10;3.63;;;2.43;;
434;SDS011;204;48.942;9.256;2023-07-20T06:36:35;2.50;;;1.70;;
434;SDS011;204;48.942;9.256;2023-07-20T06:39:01;1.93;;;1.47;;
434;SDS011;204;48.942;9.256;2023-07-20T06:41:28;4.97;;;1.47;;
434;SDS011;204;48.942;9.256;2023-07-20T06:43:54;3.20;;;2.00;;
434;SDS011;204;48.942;9.256;2023-07-20T06:46:23;2.00;;;1.90;;
434;SDS011;204;48.942;9.256;2023-07-20T06:48:51;3.30;;;1.60;;
434;SDS011;204;48.942;9.256;2023-07-20T06:51:17;3.17;;;1.30;;
434;SDS011;204;48.942;9.256;2023-07-20T06:53:43;2.90;;;2.00;;
434;SDS011;204;48.942;9.256;2023-07-20T06:56:08;3.23;;;2.20;;
434;SDS011;204;48.942;9.256;2023-07-20T06:58:34;1.90;;;1.50;;
434;SDS011;204;48.942;9.256;2023-07-20T07:01:04;3.20;;;2.10;;
434;SDS011;204;48.942;9.256;2023-07-20T07:03:33;1.60;;;1.50;;
434;SDS011;204;48.942;9.256;2023-07-20T07:05:59;3.53;;;1.97;;
434;SDS011;204;48.942;9.256;2023-07-20T07:08:25;2.47;;;1.70;;
434;SDS011;204;48.942;9.256;2023-07-20T07:10:51;1.93;;;1.83;;
434;SDS011;204;48.942;9.256;2023-07-20T07:13:17;3.23;;;2.10;;
434;SDS011;204;48.942;9.256;2023-07-20T07:15:43;1.87;;;1.80;;
434;SDS011;204;48.942;9.256;2023-07-20T07:18:09;5.60;;;2.23;;
434;SDS011;204;48.942;9.256;2023-07-20T07:20:35;2.70;;;1.80;;
434;SDS011;204;48.942;9.256;2023-07-20T07:23:00;2.00;;;1.87;;
434;SDS011;204;48.942;9.256;2023-07-20T07:25:26;1.90;;;1.37;;
434;SDS011;204;48.942;9.256;2023-07-20T07:27:52;3.13;;;1.80;;
434;SDS011;204;48.942;9.256;2023-07-20T07:30:18;2.47;;;1.70;;
434;SDS011;204;48.942;9.256;2023-07-20T07:32:44;5.57;;;2.80;;
434;SDS011;204;48.942;9.256;2023-07-20T07:35:10;3.43;;;2.00;;
434;SDS011;204;48.942;9.256;2023-07-20T07:37:36;2.73;;;2.60;;
434;SDS011;204;48.942;9.256;2023-07-20T07:40:02;3.80;;;2.10;;
434;SDS011;204;48.942;9.256;2023-07-20T07:42:28;2.33;;;2.17;;
434;SDS011;204;48.942;9.256;2023-07-20T07:44:54;4.00;;;1.50;;
434;SDS011;204;48.942;9.256;2023-07-20T07:47:20;2.60;;;1.87;;
434;SDS011;204;48.942;9.256;2023-07-20T07:49:45;2.60;;;1.60;;
434;SDS011;204;48.942;9.256;2023-07-20T07:52:11;3.00;;;2.23;;
434;SDS011;204;48.942;9.256;2023-07-20T07:54:37;3.10;;;2.40;;
434;SDS011;204;48.942;9.256;2023-07-20T07:57:02;3.00;;;1.50;;
434;SDS011;204;48.942;9.256;2023-07-20T07:59:28;2.93;;;2.00;;
434;SDS011;204;48.942;9.256;2023-07-20T08:01:56;2.80;;;2.27;;
434;SDS011;204;48.942;9.256;2023-07-20T08:04:23;2.13;;;1.97;;
434;SDS011;204;48.942;9.256;2023-07-20T08:06:49;3.63;;;2.10;;
434;SDS011;204;48.942;9.256;2023-07-20T08:09:14;4.07;;;1.80;;
434;SDS011;204;48.942;9.256;2023-07-20T08:11:40;1.50;;;1.30;;
434;SDS011;204;48.942;9.256;2023-07-20T08:14:05;1.73;;;1.70;;
434;SDS011;204;48.942;9.256;2023-07-20T08:16:31;2.00;;;1.70;;
434;SDS011;204;48.942;9.256;2023-07-20T08:18:56;2.20;;;1.73;;
434;SDS011;204;48.942;9.256;2023-07-20T08:21:22;1.83;;;1.73;;
434;SDS011;204;48.942;9.256;2023-07-20T08:23:48;4.80;;;1.73;;
434;SDS011;204;48.942;9.256;2023-07-20T08:26:13;3.30;;;1.90;;
434;SDS011;204;48.942;9.256;2023-07-20T08:28:42;2.00;;;1.90;;
434;SDS011;204;48.942;9.256;2023-07-20T08:31:09;4.43;;;1.70;;
434;SDS011;204;48.942;9.256;2023-07-20T08:33:34;2.07;;;1.80;;
434;SDS011;204;48.942;9.256;2023-07-20T08:36:00;2.60;;;1.97;;
434;SDS011;204;48.942;9.256;2023-07-20T08:38:27;5.23;;;2.23;;
434;SDS011;204;48.942;9.256;2023-07-20T08:40:53;4.10;;;1.30;;
434;SDS011;204;48.942;9.256;2023-07-20T08:43:20;2.57;;;2.03;;
434;SDS011;204;48.942;9.256;2023-07-20T08:45:51;3.20;;;2.00;;
434;SDS011;204;48.942;9.256;2023-07-20T08:48:19;3.27;;;2.33;;
434;SDS011;204;48.942;9.256;2023-07-20T08:50:47;3.63;;;2.43;;
434;SDS011;204;48.942;9.256;2023-07-20T08:53:15;3.40;;;2.20;;
434;SDS011;204;48.942;9.256;2023-07-20T08:55:42;2.40;;;1.80;;
434;SDS011;204;48.942;9.256;2023-07-20T08:58:14;2.03;;;1.70;;
434;SDS011;204;48.942;9.256;2023-07-20T09:00:41;2.63;;;2.03;;
434;SDS011;204;48.942;9.256;2023-07-20T09:03:07;3.70;;;2.37;;
434;SDS011;204;48.942;9.256;2023-07-20T09:05:33;2.03;;;1.43;;
434;SDS011;204;48.942;9.256;2023-07-20T09:08:00;3.97;;;1.50;;
434;SDS011;204;48.942;9.256;2023-07-20T09:10:27;2.77;;;1.77;;
434;SDS011;204;48.942;9.256;2023-07-20T09:12:53;2.83;;;1.97;;
434;SDS011;204;48.942;9.256;2023-07-20T09:15:20;5.10;;;1.97;;
434;SDS011;204;48.942;9.256;2023-07-20T09:17:47;4.53;;;1.70;;
434;SDS011;204;48.942;9.256;2023-07-20T09:20:14;1.37;;;1.30;;
434;SDS011;204;48.942;9.256;2023-07-20T09:22:42;1.60;;;1.50;;
434;SDS011;204;48.942;9.256;2023-07-20T09:25:11;2.03;;;1.40;;
434;SDS011;204;48.942;9.256;2023-07-20T09:27:41;3.40;;;1.80;;
434;SDS011;204;48.942;9.256;2023-07-20T09:30:07;2.30;;;1.47;;
434;SDS011;204;48.942;9.256;2023-07-20T09:32:39;1.60;;;1.40;;
434;SDS011;204;48.942;9.256;2023-07-20T09:35:18;4.33;;;1.90;;
434;SDS011;204;48.942;9.256;2023-07-20T09:37:47;1.77;;;1.23;;
434;SDS011;204;48.942;9.256;2023-07-20T09:40:17;2.40;;;1.83;;
434;SDS011;204;48.942;9.256;2023-07-20T09:42:44;2.40;;;1.80;;
434;SDS011;204;48.942;9.256;2023-07-20T09:45:10;2.73;;;1.43;;
434;SDS011;204;48.942;9.256;2023-07-20T09:47:36;5.60;;;1.47;;
434;SDS011;204;48.942;9.256;2023-07-20T09:50:06;2.10;;;1.33;;
434;SDS011;204;48.942;9.256;2023-07-20T09:52:37;4.60;;;1.37;;
434;SDS011;204;48.942;9.256;2023-07-20T09:55:09;1.87;;;1.80;;
434;SDS011;204;48.942;9.256;2023-07-20T09:57:37;2.03;;;1.50;;
434;SDS011;204;48.942;9.256;2023-07-20T10:00:04;1.80;;;1.50;;
434;SDS011;204;48.942;9.256;2023-07-20T10:02:40;1.33;;;1.20;;
434;SDS011;204;48.942;9.256;2023-07-20T10:05:13;1.40;;;1.40;;
434;SDS011;204;48.942;9.256;2023-07-20T10:07:49;2.00;;;1.10;;
434;SDS011;204;48.942;9.256;2023-07-20T10:10:16;2.00;;;1.47;;
434;SDS011;204;48.942;9.256;2023-07-20T10:12:43;2.73;;;1.43;;
434;SDS011;204;48.942;9.256;2023-07-20T10:15:25;3.27;;;1.50;;
434;SDS011;204;48.942;9.256;2023-07-20T10:20:56;2.70;;;1.63;;
434;SDS011;204;48.942;9.256;2023-07-20T10:23:24;2.20;;;1.37;;
434;SDS011;204;48.942;9.256;2023-07-20T10:25:51;2.23;;;1.60;;
434;SDS011;204;48.942;9.256;2023-07-20T10:28:18;1.20;;;1.13;;
434;SDS011;204;48.942;9.256;2023-07-20T10:30:44;2.30;;;1.43;;
434;SDS011;204;48.942;9.256;2023-07-20T10:33:10;2.30;;;1.30;;
434;SDS011;204;48.942;9.256;2023-07-20T10:44:02;1.53;;;1.20;;
434;SDS011;204;48.942;9.256;2023-07-20T10:49:05;2.90;;;1.73;;
434;SDS011;204;48.942;9.256;2023-07-20T10:52:05;1.47;;;1.40;;
434;SDS011;204;48.942;9.256;2023-07-20T10:56:55;1.60;;;0.80;;
434;SDS011;204;48.942;9.256;2023-07-20T11:01:50;1.13;;;1.03;;
434;SDS011;204;48.942;9.256;2023-07-20T11:04:37;3.03;;;1.40;;
434;SDS011;204;48.942;9.256;2023-07-20T11:07:04;1.10;;;1.00;;
434;SDS011;204;48.942;9.256;2023-07-20T11:09:33;1.93;;;1.20;;
434;SDS011;204;48.942;9.256;2023-07-20T11:12:10;3.03;;;1.33;;
434;SDS011;204;48.942;9.256;2023-07-20T11:14:55;1.73;;;1.07;;
434;SDS011;204;48.942;9.256;2023-07-20T11:17:28;1.63;;;1.07;;
434;SDS011;204;48.942;9.256;2023-07-20T11:20:01;1.80;;;1.20;;
434;SDS011;204;48.942;9.256;2023-07-20T11:22:28;2.20;;;1.63;;
434;SDS011;204;48.942;9.256;2023-07-20T11:24:58;3.33;;;1.33;;
434;SDS011;204;48.942;9.256;2023-07-20T11:27:24;1.20;;;1.20;;
434;SDS011;204;48.942;9.256;2023-07-20T11:29:49;1.80;;;1.60;;
434;SDS011;204;48.942;9.256;2023-07-20T11:32:22;2.40;;;1.20;;
434;SDS011;204;48.942;9.256;2023-07-20T11:34:48;1.73;;;1.17;;
434;SDS011;204;48.942;9.256;2023-07-20T11:37:14;1.90;;;1.67;;
434;SDS011;204;48.942;9.256;2023-07-20T11:39:41;1.13;;;1.03;;
434;SDS011;204;48.942;9.256;2023-07-20T11:42:08;1.80;;;1.47;;
434;SDS011;204;48.942;9.256;2023-07-20T11:44:34;4.77;;;1.40;;
434;SDS011;204;48.942;9.256;2023-07-20T11:47:00;1.37;;;1.20;;
434;SDS011;204;48.942;9.256;2023-07-20T11:49:30;4.73;;;1.43;;
434;SDS011;204;48.942;9.256;2023-07-20T11:51:59;1.73;;;1.13;;
434;SDS011;204;48.942;9.256;2023-07-20T11:54:25;4.20;;;1.23;;
434;SDS011;204;48.942;9.256;2023-07-20T11:56:55;2.80;;;1.40;;
434;SDS011;204;48.942;9.256;2023-07-20T11:59:21;1.33;;;1.10;;
434;SDS011;204;48.942;9.256;2023-07-20T12:01:46;1.63;;;1.37;;
434;SDS011;204;48.942;9.256;2023-07-20T12:04:12;1.30;;;1.20;;
434;SDS011;204;48.942;9.256;2023-07-20T12:06:38;1.63;;;1.60;;
434;SDS011;204;48.942;9.256;2023-07-20T12:09:05;4.47;;;1.33;;
434;SDS011;204;48.942;9.256;2023-07-20T12:11:31;1.77;;;1.47;;
434;SDS011;204;48.942;9.256;2023-07-20T12:14:00;4.43;;;1.57;;
434;SDS011;204;48.942;9.256;2023-07-20T12:16:26;1.37;;;1.30;;
434;SDS011;204;48.942;9.256;2023-07-20T12:21:29;1.70;;;1.30;;
434;SDS011;204;48.942;9.256;2023-07-20T12:23:59;1.50;;;1.40;;
434;SDS011;204;48.942;9.256;2023-07-20T12:26:25;4.10;;;1.50;;
434;SDS011;204;48.942;9.256;2023-07-20T12:28:51;1.30;;;1.27;;
434;SDS011;204;48.942;9.256;2023-07-20T12:31:17;3.60;;;2.17;;
434;SDS011;204;48.942;9.256;2023-07-20T12:33:43;1.63;;;1.23;;
434;SDS011;204;48.942;9.256;2023-07-20T12:36:09;2.60;;;1.70;;
434;SDS011;204;48.942;9.256;2023-07-20T12:38:35;1.20;;;1.10;;
434;SDS011;204;48.942;9.256;2023-07-20T12:41:01;2.00;;;1.90;;
434;SDS011;204;48.942;9.256;2023-07-20T12:43:27;6.33;;;2.20;;
434;SDS011;204;48.942;9.256;2023-07-20T12:45:54;5.00;;;2.03;;
434;SDS011;204;48.942;9.256;2023-07-20T12:48:20;2.23;;;1.27;;
434;SDS011;204;48.942;9.256;2023-07-20T12:50:46;1.70;;;1.57;;
434;SDS011;204;48.942;9.256;2023-07-20T12:53:12;1.80;;;1.60;;
434;SDS011;204;48.942;9.256;2023-07-20T12:55:38;2.20;;;1.57;;
434;SDS011;204;48.942;9.256;2023-07-20T12:58:05;1.93;;;1.43;;
434;SDS011;204;48.942;9.256;2023-07-20T13:00:31;2.00;;;1.17;;
434;SDS011;204;48.942;9.256;2023-07-20T13:02:57;4.77;;;1.37;;
434;SDS011;204;48.942;9.256;2023-07-20T13:05:23;2.93;;;1.10;;
434;SDS011;204;48.942;9.256;2023-07-20T13:07:49;1.60;;;1.27;;
434;SDS011;204;48.942;9.256;2023-07-20T13:10:15;3.13;;;1.00;;
434;SDS011;204;48.942;9.256;2023-07-20T13:12:40;4.60;;;1.30;;
434;SDS011;204;48.942;9.256;2023-07-20T13:15:06;1.17;;;1.00;;
434;SDS011;204;48.942;9.256;2023-07-20T13:17:34;2.00;;;1.50;;
434;SDS011;204;48.942;9.256;2023-07-20T13:20:01;3.23;;;1.50;;
434;SDS011;204;48.942;9.256;2023-07-20T13:22:29;1.77;;;1.60;;
434;SDS011;204;48.942;9.256;2023-07-20T13:24:55;1.80;;;1.40;;
434;SDS011;204;48.942;9.256;2023-07-20T13:27:21;4.47;;;1.10;;
434;SDS011;204;48.942;9.256;2023-07-20T13:29:47;1.53;;;1.00;;
434;SDS011;204;48.942;9.256;2023-07-20T13:32:13;3.93;;;1.20;;
434;SDS011;204;48.942;9.256;2023-07-20T13:34:40;2.57;;;1.50;;
434;SDS011;204;48.942;9.256;2023-07-20T13:37:09;1.50;;;1.30;;
434;SDS011;204;48.942;9.256;2023-07-20T13:39:34;1.13;;;1.03;;
434;SDS011;204;48.942;9.256;2023-07-20T13:42:00;2.00;;;1.47;;
434;SDS011;204;48.942;9.256;2023-07-20T13:44:30;2.80;;;1.47;;
434;SDS011;204;48.942;9.256;2023-07-20T13:46:59;2.03;;;1.10;;
434;SDS011;204;48.942;9.256;2023-07-20T13:49:25;3.80;;;1.13;;
434;SDS011;204;48.942;9.256;2023-07-20T13:51:50;2.70;;;1.53;;
434;SDS011;204;48.942;9.256;2023-07-20T13:54:16;3.07;;;1.93;;
434;SDS011;204;48.942;9.256;2023-07-20T13:56:41;1.67;;;1.50;;
434;SDS011;204;48.942;9.256;2023-07-20T13:59:07;3.00;;;1.13;;
434;SDS011;204;48.942;9.256;2023-07-20T14:01:33;1.90;;;1.33;;
434;SDS011;204;48.942;9.256;2023-07-20T14:03:59;2.23;;;1.50;;
434;SDS011;204;48.942;9.256;2023-07-20T14:06:25;1.80;;;1.47;;
434;SDS011;204;48.942;9.256;2023-07-20T14:08:51;3.10;;;1.60;;
434;SDS011;204;48.942;9.256;2023-07-20T14:11:18;5.23;;;2.13;;
434;SDS011;204;48.942;9.256;2023-07-20T14:13:44;1.77;;;1.47;;
434;SDS011;204;48.942;9.256;2023-07-20T14:16:09;2.60;;;2.10;;
434;SDS011;204;48.942;9.256;2023-07-20T14:18:35;4.30;;;1.73;;
434;SDS011;204;48.942;9.256;2023-07-20T14:21:01;2.90;;;1.37;;
434;SDS011;204;48.942;9.256;2023-07-20T14:23:28;2.30;;;1.17;;
434;SDS011;204;48.942;9.256;2023-07-20T14:25:55;2.13;;;1.17;;
434;SDS011;204;48.942;9.256;2023-07-20T14:28:21;4.13;;;1.40;;
434;SDS011;204;48.942;9.256;2023-07-20T14:30:46;2.47;;;1.33;;
434;SDS011;204;48.942;9.256;2023-07-20T14:33:12;5.03;;;1.87;;
434;SDS011;204;48.942;9.256;2023-07-20T14:35:38;2.80;;;0.90;;
434;SDS011;204;48.942;9.256;2023-07-20T14:38:03;1.63;;;1.60;;
434;SDS011;204;48.942;9.256;2023-07-20T14:40:29;3.70;;;1.60;;
434;SDS011;204;48.942;9.256;2023-07-20T14:42:57;1.40;;;1.10;;
434;SDS011;204;48.942;9.256;2023-07-20T14:45:25;1.10;;;1.00;;
434;SDS011;204;48.942;9.256;2023-07-20T14:47:52;4.30;;;1.40;;
434;SDS011;204;48.942;9.256;2023-07-20T14:50:21;2.40;;;1.30;;
434;SDS011;204;48.942;9.256;2023-07-20T14:52:47;2.50;;;1.30;;
434;SDS011;204;48.942;9.256;2023-07-20T14:55:13;3.60;;;1.53;;
434;SDS011;204;48.942;9.256;2023-07-20T14:57:39;1.73;;;1.40;;
434;SDS011;204;48.942;9.256;2023-07-20T15:00:04;1.93;;;1.40;;
434;SDS011;204;48.942;9.256;2023-07-20T15:02:33;1.63;;;1.40;;
434;SDS011;204;48.942;9.256;2023-07-20T15:04:59;1.37;;;1.27;;
434;SDS011;204;48.942;9.256;2023-07-20T15:07:24;1.33;;;1.10;;
434;SDS011;204;48.942;9.256;2023-07-20T15:09:50;1.20;;;1.03;;
434;SDS011;204;48.942;9.256;2023-07-20T15:12:16;5.90;;;1.50;;
434;SDS011;204;48.942;9.256;2023-07-20T15:14:43;2.40;;;1.37;;
434;SDS011;204;48.942;9.256;2023-07-20T15:17:09;1.77;;;1.33;;
434;SDS011;204;48.942;9.256;2023-07-20T15:19:35;1.40;;;1.30;;
434;SDS011;204;48.942;9.256;2023-07-20T15:22:01;1.10;;;1.00;;
434;SDS011;204;48.942;9.256;2023-07-20T15:24:28;2.27;;;1.10;;
434;SDS011;204;48.942;9.256;2023-07-20T15:26:57;1.93;;;1.40;;
434;SDS011;204;48.942;9.256;2023-07-20T15:29:24;1.20;;;1.20;;
434;SDS011;204;48.942;9.256;2023-07-20T15:31:49;1.13;;;1.00;;
434;SDS011;204;48.942;9.256;2023-07-20T15:34:15;1.80;;;1.30;;
434;SDS011;204;48.942;9.256;2023-07-20T15:36:41;2.13;;;1.10;;
434;SDS011;204;48.942;9.256;2023-07-20T15:39:07;2.43;;;1.17;;
434;SDS011;204;48.942;9.256;2023-07-20T15:41:33;1.37;;;0.77;;
434;SDS011;204;48.942;9.256;2023-07-20T15:43:59;1.37;;;1.27;;
434;SDS011;204;48.942;9.256;2023-07-20T15:49:06;2.67;;;1.80;;
434;SDS011;204;48.942;9.256;2023-07-20T15:51:32;1.13;;;1.03;;
434;SDS011;204;48.942;9.256;2023-07-20T15:54:01;1.57;;;1.10;;
434;SDS011;204;48.942;9.256;2023-07-20T15:56:27;1.37;;;1.27;;
434;SDS011;204;48.942;9.256;2023-07-20T15:58:53;1.10;;;1.10;;
434;SDS011;204;48.942;9.256;2023-07-20T16:01:18;1.57;;;1.27;;
434;SDS011;204;48.942;9.256;2023-07-20T16:03:44;1.87;;;1.50;;
434;SDS011;204;48.942;9.256;2023-07-20T16:06:10;5.10;;;1.53;;
434;SDS011;204;48.942;9.256;2023-07-20T16:08:36;2.03;;;1.40;;
434;SDS011;204;48.942;9.256;2023-07-20T16:11:01;3.30;;;1.10;;
434;SDS011;204;48.942;9.256;2023-07-20T16:13:28;4.27;;;1.20;;
434;SDS011;204;48.942;9.256;2023-07-20T16:15:53;2.80;;;1.90;;
434;SDS011;204;48.942;9.256;2023-07-20T16:18:19;2.37;;;1.60;;